createdAt,value
2022-08-14T00:00:05.891Z,39.60
2022-08-14T00:02:32.446Z,39.60
2022-08-14T00:04:59.018Z,39.70
2022-08-14T00:07:25.546Z,39.70
2022-08-14T00:10:02.202Z,39.70
2022-08-14T00:12:39.713Z,39.70
2022-08-14T00:15:06.298Z,39.70
2022-08-14T00:17:38.019Z,39.80
2022-08-14T00:20:13.697Z,39.60
2022-08-14T00:22:56.665Z,39.70
2022-08-14T00:25:24.728Z,39.70
2022-08-14T00:27:57.181Z,39.70
2022-08-14T00:30:23.708Z,39.80
2022-08-14T00:32:56.562Z,39.80
2022-08-14T00:36:34.147Z,39.70
2022-08-14T00:38:09.835Z,40.40
2022-08-14T00:40:36.431Z,39.80
2022-08-14T00:43:03.185Z,39.90
2022-08-14T00:45:30.502Z,39.90
2022-08-14T00:47:57.734Z,40.00
2022-08-14T00:50:26.681Z,40.00
2022-08-14T00:52:54.631Z,40.00
2022-08-14T00:55:21.506Z,40.10
2022-08-14T00:57:49.910Z,40.20
2022-08-14T01:00:34.436Z,40.00
2022-08-14T01:03:03.799Z,40.20
2022-08-14T01:05:41.706Z,40.20
2022-08-14T01:08:50.692Z,40.10
2022-08-14T01:11:03.355Z,40.10
2022-08-14T01:13:42.299Z,40.70
2022-08-14T01:16:09.656Z,40.10
2022-08-14T01:18:40.487Z,40.10
2022-08-14T01:21:08.795Z,40.10
2022-08-14T01:23:46.764Z,40.10
2022-08-14T01:26:13.712Z,40.20
2022-08-14T01:28:57.731Z,40.20
2022-08-14T01:31:24.393Z,40.20
2022-08-14T01:34:00.517Z,40.20
2022-08-14T01:36:37.449Z,40.30
2022-08-14T01:39:06.072Z,40.30
2022-08-14T01:41:39.263Z,40.40
2022-08-14T01:44:06.395Z,40.40
2022-08-14T01:46:58.095Z,40.40
2022-08-14T01:49:35.335Z,40.30
2022-08-14T01:52:02.333Z,40.40
2022-08-14T01:54:37.905Z,40.50
2022-08-14T01:57:04.868Z,40.50
2022-08-14T01:59:37.846Z,40.50
2022-08-14T02:02:05.131Z,40.60
2022-08-14T02:04:55.900Z,40.50
2022-08-14T02:07:34.714Z,40.60
2022-08-14T02:10:13.108Z,40.60
2022-08-14T02:12:42.445Z,40.70
2022-08-14T02:15:09.105Z,40.80
2022-08-14T02:17:35.678Z,40.80
2022-08-14T02:20:03.019Z,40.80
2022-08-14T02:22:33.107Z,40.80
2022-08-14T02:25:00.005Z,40.80
2022-08-14T02:28:22.234Z,40.80
2022-08-14T02:30:13.842Z,40.70
2022-08-14T02:32:40.378Z,40.80
2022-08-14T02:35:07.231Z,40.80
2022-08-14T02:37:48.422Z,40.80
2022-08-14T02:40:15.574Z,40.70
2022-08-14T02:42:54.568Z,40.80
2022-08-14T02:45:23.776Z,40.70
2022-08-14T02:47:57.312Z,40.80
2022-08-14T02:50:27.156Z,40.70
2022-08-14T02:52:57.855Z,40.70
2022-08-14T02:55:29.732Z,40.80
2022-08-14T02:57:58.129Z,41.00
2022-08-14T03:00:29.949Z,41.00
2022-08-14T03:02:59.414Z,41.00
2022-08-14T03:05:26.241Z,41.00
2022-08-14T03:07:52.989Z,41.00
2022-08-14T03:10:26.538Z,41.00
2022-08-14T03:12:58.549Z,41.00
2022-08-14T03:15:25.437Z,41.00
2022-08-14T03:17:57.092Z,41.00
2022-08-14T03:20:24.717Z,41.10
2022-08-14T03:22:51.246Z,41.10
2022-08-14T03:25:17.786Z,41.20
2022-08-14T03:27:48.368Z,41.10
2022-08-14T03:30:39.617Z,41.20
2022-08-14T03:33:07.656Z,41.20
2022-08-14T03:35:40.065Z,41.10
2022-08-14T03:39:14.960Z,41.20
2022-08-14T03:41:07.178Z,41.20
2022-08-14T03:43:33.687Z,41.10
2022-08-14T03:46:00.205Z,41.20
2022-08-14T03:48:31.468Z,41.20
2022-08-14T03:51:06.898Z,41.30
2022-08-14T03:53:35.190Z,41.30
2022-08-14T03:56:01.715Z,41.30
2022-08-14T03:58:35.359Z,41.50
2022-08-14T04:01:03.463Z,41.40
2022-08-14T04:03:33.038Z,41.40
2022-08-14T04:06:01.034Z,41.40
2022-08-14T04:08:31.070Z,41.50
2022-08-14T04:11:07.704Z,41.50
2022-08-14T04:13:34.684Z,41.60
2022-08-14T04:16:05.027Z,41.70
2022-08-14T04:18:31.960Z,41.80
2022-08-14T04:21:00.351Z,42.00
2022-08-14T04:23:29.956Z,42.10
2022-08-14T04:25:59.514Z,42.20
2022-08-14T04:29:01.541Z,42.30
2022-08-14T04:31:12.550Z,42.50
2022-08-14T04:33:41.904Z,42.60
2022-08-14T04:36:09.315Z,42.70
2022-08-14T04:38:42.681Z,42.70
2022-08-14T04:41:09.255Z,42.70
2022-08-14T04:43:38.317Z,42.70
2022-08-14T04:46:06.812Z,42.70
2022-08-14T04:48:41.042Z,42.80
2022-08-14T04:51:10.365Z,42.90
2022-08-14T04:53:42.841Z,42.90
2022-08-14T04:56:29.992Z,43.00
2022-08-14T04:58:56.564Z,42.80
2022-08-14T05:01:23.136Z,43.10
2022-08-14T05:03:51.599Z,43.20
2022-08-14T05:06:38.016Z,43.30
2022-08-14T05:09:04.627Z,43.30
2022-08-14T05:11:31.786Z,43.40
2022-08-14T05:14:33.700Z,43.40
2022-08-14T05:16:46.675Z,43.40
2022-08-14T05:19:18.507Z,43.60
2022-08-14T05:22:00.286Z,43.80
2022-08-14T05:24:36.109Z,43.70
2022-08-14T05:27:03.953Z,43.70
2022-08-14T05:29:30.482Z,43.90
2022-08-14T05:31:58.084Z,43.90
2022-08-14T05:34:29.528Z,44.20
2022-08-14T05:36:58.857Z,44.20
2022-08-14T05:39:29.112Z,44.40
2022-08-14T05:41:55.668Z,44.50
2022-08-14T05:44:22.945Z,44.60
2022-08-14T05:46:51.357Z,44.60
2022-08-14T05:49:21.561Z,44.40
2022-08-14T05:51:48.081Z,44.60
2022-08-14T05:54:27.040Z,44.50
2022-08-14T05:56:54.093Z,44.70
2022-08-14T05:59:21.790Z,44.60
2022-08-14T06:02:03.530Z,44.70
2022-08-14T06:04:32.478Z,44.70
2022-08-14T06:06:59.286Z,45.10
2022-08-14T06:09:25.819Z,44.60
2022-08-14T06:11:52.334Z,44.40
2022-08-14T06:14:21.401Z,45.20
2022-08-14T06:16:52.991Z,44.80
2022-08-14T06:19:19.955Z,45.10
2022-08-14T06:21:46.502Z,44.70
2022-08-14T06:24:18.852Z,44.80
2022-08-14T06:26:52.060Z,44.70
2022-08-14T06:29:21.026Z,45.10
2022-08-14T06:31:47.926Z,45.10
2022-08-14T06:35:03.240Z,44.70
2022-08-14T06:37:13.096Z,45.20
2022-08-14T06:39:44.423Z,45.40
2022-08-14T06:42:22.327Z,45.20
2022-08-14T06:44:59.667Z,44.90
2022-08-14T06:47:26.763Z,45.30
2022-08-14T06:49:57.879Z,45.40
2022-08-14T06:52:24.795Z,45.50
2022-08-14T06:54:51.469Z,45.40
2022-08-14T06:57:18.479Z,45.50
2022-08-14T06:59:45.010Z,45.40
2022-08-14T07:02:13.166Z,45.40
2022-08-14T07:04:40.323Z,45.60
2022-08-14T07:07:07.252Z,45.70
2022-08-14T07:09:44.371Z,45.80
2022-08-14T07:12:51.844Z,45.80
2022-08-14T07:15:03.901Z,45.90
2022-08-14T07:17:31.864Z,45.90
2022-08-14T07:19:58.729Z,46.00
2022-08-14T07:22:25.667Z,46.00
2022-08-14T07:24:59.695Z,46.00
2022-08-14T07:27:26.634Z,45.90
2022-08-14T07:30:00.051Z,46.10
2022-08-14T07:32:44.204Z,46.20
2022-08-14T07:35:10.807Z,46.10
2022-08-14T07:37:37.327Z,46.20
2022-08-14T07:40:03.961Z,46.20
2022-08-14T07:42:30.500Z,46.40
2022-08-14T07:44:57.023Z,46.30
2022-08-14T07:47:23.540Z,46.20
2022-08-14T07:49:50.098Z,46.70
2022-08-14T07:52:30.831Z,46.20
2022-08-14T07:54:58.492Z,46.50
2022-08-14T07:57:25.295Z,46.40
2022-08-14T07:59:51.864Z,46.60
2022-08-14T08:02:20.380Z,46.40
2022-08-14T08:04:48.324Z,46.60
2022-08-14T08:07:16.012Z,47.10
2022-08-14T08:09:45.853Z,46.30
2022-08-14T08:12:15.737Z,45.90
2022-08-14T08:14:56.506Z,45.40
2022-08-14T08:17:34.648Z,45.20
2022-08-14T08:20:04.685Z,44.90
2022-08-14T08:22:32.665Z,44.60
2022-08-14T08:24:59.326Z,44.40
2022-08-14T08:27:27.375Z,44.10
2022-08-14T08:29:53.921Z,43.90
2022-08-14T08:32:21.261Z,43.80
2022-08-14T08:34:56.622Z,43.70
2022-08-14T08:37:25.627Z,43.60
2022-08-14T08:40:03.466Z,43.50
2022-08-14T08:42:31.748Z,43.50
2022-08-14T08:45:05.452Z,43.60
2022-08-14T08:47:38.461Z,43.60
2022-08-14T08:50:23.091Z,43.60
2022-08-14T08:52:51.628Z,43.50
2022-08-14T08:55:18.701Z,43.50
2022-08-14T08:57:45.675Z,43.40
2022-08-14T09:00:25.230Z,43.40
2022-08-14T09:02:52.791Z,43.40
2022-08-14T09:05:19.332Z,43.40
2022-08-14T09:07:49.403Z,43.50
2022-08-14T09:10:23.071Z,43.50
2022-08-14T09:12:51.564Z,43.50
2022-08-14T09:15:18.347Z,43.50
2022-08-14T09:17:46.286Z,43.50
2022-08-14T09:20:13.032Z,43.50
2022-08-14T09:22:42.625Z,43.50
2022-08-14T09:25:15.087Z,43.50
2022-08-14T09:27:41.765Z,43.50
2022-08-14T09:30:31.029Z,43.40
2022-08-14T09:32:58.841Z,43.40
2022-08-14T09:35:27.716Z,43.50
2022-08-14T09:37:55.184Z,43.60
2022-08-14T09:40:21.972Z,43.60
2022-08-14T09:42:50.025Z,43.60
2022-08-14T09:45:17.775Z,43.60
2022-08-14T09:47:44.301Z,43.70
2022-08-14T09:50:11.012Z,43.70
2022-08-14T09:52:38.423Z,43.70
2022-08-14T09:55:08.452Z,43.70
2022-08-14T09:57:35.361Z,43.60
2022-08-14T10:00:02.429Z,43.60
2022-08-14T10:02:31.917Z,43.70
2022-08-14T10:05:01.038Z,43.60
2022-08-14T10:07:27.548Z,43.60
2022-08-14T10:10:00.272Z,43.60
2022-08-14T10:12:29.412Z,43.60
2022-08-14T10:14:56.076Z,43.70
2022-08-14T10:17:22.598Z,43.70
2022-08-14T10:19:50.286Z,43.70
2022-08-14T10:23:15.598Z,43.60
2022-08-14T10:25:07.586Z,43.70
2022-08-14T10:27:34.113Z,43.70
2022-08-14T10:30:02.156Z,43.70
2022-08-14T10:32:36.563Z,43.60
2022-08-14T10:35:13.794Z,43.70
2022-08-14T10:37:44.327Z,43.80
2022-08-14T10:40:38.856Z,43.70
2022-08-14T10:42:57.843Z,43.80
2022-08-14T10:45:24.456Z,43.90
2022-08-14T10:48:08.802Z,43.80
2022-08-14T10:50:36.331Z,43.90
2022-08-14T10:53:02.841Z,43.90
2022-08-14T10:55:29.350Z,43.90
2022-08-14T10:57:58.626Z,43.90
2022-08-14T11:00:30.396Z,44.10
2022-08-14T11:03:02.602Z,44.10
2022-08-14T11:05:29.206Z,44.10
2022-08-14T11:07:56.536Z,44.30
2022-08-14T11:10:23.466Z,44.10
2022-08-14T11:12:54.116Z,44.20
2022-08-14T11:15:20.754Z,44.30
2022-08-14T11:17:49.731Z,44.20
2022-08-14T11:20:16.846Z,44.30
2022-08-14T11:23:03.395Z,44.30
2022-08-14T11:25:43.495Z,44.30
2022-08-14T11:28:11.195Z,44.50
2022-08-14T11:30:53.357Z,44.50
2022-08-14T11:33:20.045Z,44.50
2022-08-14T11:35:48.194Z,44.50
2022-08-14T11:38:17.171Z,44.60
2022-08-14T11:40:47.037Z,44.50
2022-08-14T11:43:14.009Z,44.60
2022-08-14T11:45:41.372Z,44.60
2022-08-14T11:48:13.390Z,44.70
2022-08-14T11:50:54.442Z,44.60
2022-08-14T11:53:22.396Z,44.70
2022-08-14T11:55:48.951Z,44.70
2022-08-14T11:58:23.663Z,44.80
2022-08-14T12:00:52.675Z,44.80
2022-08-14T12:03:37.494Z,44.80
2022-08-14T12:06:06.003Z,44.80
2022-08-14T12:08:35.999Z,45.00
2022-08-14T12:11:05.213Z,44.90
2022-08-14T12:13:31.726Z,44.90
2022-08-14T12:16:06.412Z,45.00
2022-08-14T12:18:37.830Z,45.00
2022-08-14T12:21:04.347Z,45.00
2022-08-14T12:23:32.332Z,45.10
2022-08-14T12:25:59.560Z,45.00
2022-08-14T12:28:33.783Z,45.20
2022-08-14T12:31:14.739Z,45.40
2022-08-14T12:33:53.862Z,45.40
2022-08-14T12:36:20.803Z,45.30
2022-08-14T12:38:47.441Z,45.30
2022-08-14T12:41:20.355Z,45.40
2022-08-14T12:43:48.105Z,45.40
2022-08-14T12:46:22.383Z,45.40
2022-08-14T12:48:53.496Z,45.30
2022-08-14T12:51:21.698Z,45.40
2022-08-14T12:53:51.798Z,45.40
2022-08-14T12:56:32.565Z,45.40
2022-08-14T12:59:00.052Z,45.40
2022-08-14T13:01:26.631Z,45.40
2022-08-14T13:03:53.215Z,45.40
2022-08-14T13:06:19.756Z,45.40
2022-08-14T13:08:52.960Z,45.40
2022-08-14T13:11:20.406Z,45.40
2022-08-14T13:13:50.670Z,45.50
2022-08-14T13:16:20.761Z,45.50
2022-08-14T13:19:00.399Z,45.50
2022-08-14T13:21:27.920Z,45.60
2022-08-14T13:23:55.780Z,45.50
2022-08-14T13:26:24.148Z,45.60
2022-08-14T13:29:02.446Z,45.50
2022-08-14T13:31:30.473Z,45.70
2022-08-14T13:33:57.086Z,45.60
2022-08-14T13:36:51.541Z,45.70
2022-08-14T13:39:12.843Z,45.70
2022-08-14T13:41:39.471Z,45.70
2022-08-14T13:44:07.874Z,45.80
2022-08-14T13:46:40.295Z,45.80
2022-08-14T13:49:10.218Z,45.80
2022-08-14T13:51:39.240Z,45.70
2022-08-14T13:54:11.023Z,45.80
2022-08-14T13:56:37.965Z,45.80
2022-08-14T13:59:04.918Z,45.80
2022-08-14T14:01:35.010Z,45.80
2022-08-14T14:04:11.352Z,45.80
2022-08-14T14:06:46.210Z,45.80
2022-08-14T14:09:13.358Z,45.90
2022-08-14T14:11:39.909Z,45.90
2022-08-14T14:14:07.617Z,46.00
2022-08-14T14:16:54.121Z,46.00
2022-08-14T14:19:20.842Z,46.00
2022-08-14T14:21:50.074Z,46.00
2022-08-14T14:24:16.593Z,46.00
2022-08-14T14:26:43.130Z,46.00
2022-08-14T14:29:09.662Z,46.00
2022-08-14T14:31:36.199Z,46.10
2022-08-14T14:34:12.462Z,46.10
2022-08-14T14:36:52.622Z,46.10
2022-08-14T14:39:21.991Z,46.00
2022-08-14T14:41:49.827Z,46.00
2022-08-14T14:44:22.856Z,46.00
2022-08-14T14:46:50.021Z,46.10
2022-08-14T14:49:16.844Z,46.00
2022-08-14T14:51:51.385Z,46.00
2022-08-14T14:54:19.045Z,45.90
2022-08-14T14:56:56.624Z,45.90
2022-08-14T14:59:23.153Z,46.00
2022-08-14T15:01:49.758Z,46.00
2022-08-14T15:04:20.849Z,45.90
2022-08-14T15:06:48.160Z,45.80
2022-08-14T15:09:18.153Z,45.90
2022-08-14T15:11:45.590Z,46.00
2022-08-14T15:14:56.302Z,45.90
2022-08-14T15:16:59.034Z,46.00
2022-08-14T15:19:26.819Z,45.90
2022-08-14T15:21:53.354Z,45.90
2022-08-14T15:24:24.307Z,46.10
2022-08-14T15:26:53.323Z,45.90
2022-08-14T15:29:19.869Z,45.90
2022-08-14T15:31:46.391Z,45.90
2022-08-14T15:34:43.614Z,45.80
2022-08-14T15:36:59.411Z,45.80
2022-08-14T15:39:26.019Z,45.80
2022-08-14T15:41:57.130Z,45.80
2022-08-14T15:44:25.846Z,45.70
2022-08-14T15:46:53.132Z,46.40
2022-08-14T15:49:19.687Z,45.70
2022-08-14T15:51:46.215Z,45.70
2022-08-14T15:54:13.063Z,45.80
2022-08-14T15:56:42.859Z,45.70
2022-08-14T15:59:09.759Z,45.70
2022-08-14T16:01:53.863Z,45.70
2022-08-14T16:04:21.370Z,45.70
2022-08-14T16:06:54.737Z,45.80
2022-08-14T16:09:21.990Z,45.70
2022-08-14T16:11:53.362Z,45.70
2022-08-14T16:14:21.531Z,45.70
2022-08-14T16:16:51.482Z,45.70
2022-08-14T16:19:23.585Z,45.70
2022-08-14T16:21:58.449Z,45.70
2022-08-14T16:24:29.762Z,45.70
2022-08-14T16:27:00.962Z,45.70
2022-08-14T16:29:27.774Z,45.70
2022-08-14T16:31:56.544Z,45.60
2022-08-14T16:34:46.346Z,45.70
2022-08-14T16:37:10.986Z,45.60
2022-08-14T16:39:39.984Z,45.70
2022-08-14T16:42:38.181Z,45.70
2022-08-14T16:44:54.676Z,45.70
2022-08-14T16:47:22.417Z,45.60
2022-08-14T16:50:02.855Z,45.60
2022-08-14T16:52:44.738Z,45.60
2022-08-14T16:55:11.810Z,45.60
2022-08-14T16:57:40.324Z,45.60
2022-08-14T17:00:19.824Z,45.50
2022-08-14T17:02:53.966Z,45.50
2022-08-14T17:05:20.988Z,45.50
2022-08-14T17:07:48.696Z,45.50
2022-08-14T17:10:27.934Z,45.60
2022-08-14T17:12:55.569Z,45.50
2022-08-14T17:15:23.545Z,45.40
2022-08-14T17:17:57.812Z,45.40
2022-08-14T17:20:51.508Z,45.50
2022-08-14T17:23:11.357Z,45.50
2022-08-14T17:25:37.977Z,45.50
2022-08-14T17:28:51.771Z,45.50
2022-08-14T17:30:52.059Z,45.60
2022-08-14T17:33:18.599Z,45.60
2022-08-14T17:35:58.367Z,45.50
2022-08-14T17:38:38.812Z,45.50
2022-08-14T17:41:06.521Z,45.50
2022-08-14T17:43:41.987Z,45.50
2022-08-14T17:46:09.671Z,45.50
2022-08-14T17:49:15.595Z,45.50
2022-08-14T17:51:23.857Z,45.50
2022-08-14T17:54:02.399Z,45.50
2022-08-14T17:56:31.455Z,45.50
2022-08-14T17:58:58.196Z,45.50
2022-08-14T18:01:25.785Z,45.50
2022-08-14T18:03:53.492Z,45.50
2022-08-14T18:06:38.360Z,45.60
2022-08-14T18:09:25.438Z,45.60
2022-08-14T18:11:52.928Z,45.60
2022-08-14T18:14:31.516Z,45.60
2022-08-14T18:16:59.481Z,45.60
2022-08-14T18:19:27.702Z,45.60
2022-08-14T18:21:56.934Z,45.60
2022-08-14T18:24:30.109Z,45.60
2022-08-14T18:27:01.774Z,45.60
2022-08-14T18:29:31.582Z,45.60
2022-08-14T18:31:58.504Z,45.60
2022-08-14T18:34:31.563Z,45.50
2022-08-14T18:37:03.750Z,45.50
2022-08-14T18:40:02.540Z,45.50
2022-08-14T18:42:30.476Z,45.50
2022-08-14T18:44:57.245Z,45.60
2022-08-14T18:47:23.767Z,45.60
2022-08-14T18:49:52.163Z,45.50
2022-08-14T18:52:20.901Z,45.60
2022-08-14T18:54:48.438Z,45.50
2022-08-14T18:57:20.003Z,45.50
2022-08-14T18:59:47.270Z,45.50
2022-08-14T19:02:20.562Z,45.50
2022-08-14T19:04:47.505Z,45.60
2022-08-14T19:07:16.190Z,45.60
2022-08-14T19:09:42.993Z,45.60
2022-08-14T19:12:16.782Z,45.60
2022-08-14T19:14:54.660Z,45.60
2022-08-14T19:17:21.192Z,45.60
2022-08-14T19:19:48.847Z,45.60
2022-08-14T19:22:29.354Z,46.20
2022-08-14T19:24:56.584Z,45.60
2022-08-14T19:27:25.160Z,45.70
2022-08-14T19:29:52.989Z,45.60
2022-08-14T19:32:19.524Z,45.60
2022-08-14T19:34:52.116Z,45.60
2022-08-14T19:37:19.330Z,45.60
2022-08-14T19:39:48.647Z,45.70
2022-08-14T19:42:28.308Z,45.60
2022-08-14T19:44:56.901Z,45.60
2022-08-14T19:47:24.259Z,45.60
2022-08-14T19:50:07.955Z,45.70
2022-08-14T19:52:50.873Z,45.60
2022-08-14T19:55:17.419Z,45.60
2022-08-14T19:57:43.953Z,45.60
2022-08-14T20:00:28.204Z,45.60
2022-08-14T20:02:57.991Z,45.60
2022-08-14T20:05:28.572Z,45.60
2022-08-14T20:09:05.987Z,45.60
2022-08-14T20:11:04.940Z,45.60
2022-08-14T20:13:42.325Z,45.60
2022-08-14T20:16:12.248Z,45.60
2022-08-14T20:18:49.626Z,45.60
2022-08-14T20:21:17.058Z,45.60
2022-08-14T20:23:43.567Z,45.60
2022-08-14T20:26:14.523Z,45.70
2022-08-14T20:28:58.627Z,45.60
2022-08-14T20:31:25.193Z,45.70
2022-08-14T20:34:04.211Z,45.70
2022-08-14T20:36:32.791Z,45.70
2022-08-14T20:38:59.337Z,45.70
2022-08-14T20:41:26.454Z,45.60
2022-08-14T20:43:53.986Z,45.70
2022-08-14T20:46:20.525Z,45.70
2022-08-14T20:48:51.380Z,45.70
2022-08-14T20:51:20.162Z,45.60
2022-08-14T20:53:50.531Z,45.60
2022-08-14T20:56:30.303Z,45.80
2022-08-14T20:58:59.596Z,45.70
2022-08-14T21:01:32.542Z,46.30
2022-08-14T21:03:59.700Z,45.80
2022-08-14T21:06:26.236Z,45.70
2022-08-14T21:08:52.757Z,45.70
2022-08-14T21:11:19.309Z,45.80
2022-08-14T21:14:19.555Z,45.90
2022-08-14T21:16:35.656Z,45.90
2022-08-14T21:19:04.044Z,45.90
2022-08-14T21:21:41.343Z,45.90
2022-08-14T21:24:08.738Z,45.90
2022-08-14T21:27:00.207Z,45.90
2022-08-14T21:29:21.763Z,45.90
2022-08-14T21:31:55.793Z,46.00
2022-08-14T21:34:30.947Z,46.00
2022-08-14T21:36:58.379Z,45.90
2022-08-14T21:39:24.942Z,45.90
2022-08-14T21:41:59.142Z,45.90
2022-08-14T21:44:25.841Z,46.00
2022-08-14T21:47:09.902Z,45.90
2022-08-14T21:49:38.818Z,45.90
2022-08-14T21:52:51.113Z,45.90
2022-08-14T21:54:52.182Z,46.00
2022-08-14T21:57:20.149Z,46.00
2022-08-14T22:00:35.415Z,45.90
2022-08-14T22:02:53.202Z,45.90
2022-08-14T22:05:21.938Z,45.90
2022-08-14T22:07:48.929Z,45.90
2022-08-14T22:10:22.988Z,45.90
2022-08-14T22:13:00.445Z,45.80
2022-08-14T22:15:28.100Z,45.80
2022-08-14T22:17:55.235Z,45.90
2022-08-14T22:20:21.958Z,45.80
2022-08-14T22:22:56.553Z,45.80
2022-08-14T22:25:23.344Z,45.80
2022-08-14T22:28:00.907Z,45.80
2022-08-14T22:30:27.544Z,45.80
2022-08-14T22:32:57.611Z,45.80
2022-08-14T22:35:24.895Z,45.80
2022-08-14T22:38:34.824Z,45.70
2022-08-14T22:41:01.803Z,45.70
2022-08-14T22:43:24.430Z,45.80
2022-08-14T22:45:55.572Z,45.80
2022-08-14T22:48:23.345Z,45.70
2022-08-14T22:50:53.743Z,45.70
2022-08-14T22:53:20.489Z,45.70
2022-08-14T22:55:52.249Z,45.70
2022-08-14T22:58:18.903Z,45.70
2022-08-14T23:00:45.429Z,45.70
2022-08-14T23:03:17.328Z,45.70
2022-08-14T23:05:52.544Z,45.70
2022-08-14T23:08:59.940Z,45.70
2022-08-14T23:11:06.120Z,45.80
2022-08-14T23:13:32.988Z,45.80
2022-08-14T23:15:59.524Z,45.80
2022-08-14T23:18:29.655Z,45.80
2022-08-14T23:20:56.492Z,45.80
2022-08-14T23:23:23.379Z,45.90
2022-08-14T23:26:00.575Z,45.90
2022-08-14T23:28:56.742Z,45.90
2022-08-14T23:31:34.741Z,45.90
2022-08-14T23:34:02.696Z,45.90
2022-08-14T23:36:37.517Z,45.90
2022-08-14T23:39:20.255Z,45.90
2022-08-14T23:41:53.067Z,45.90
2022-08-14T23:44:20.198Z,45.90
2022-08-14T23:46:48.066Z,45.90
2022-08-14T23:49:14.584Z,45.90
2022-08-14T23:51:41.274Z,45.90
2022-08-14T23:54:49.380Z,45.90
2022-08-14T23:57:02.559Z,45.90
2022-08-14T23:59:30.717Z,45.90
